Time;durP1;ratioP1;P1;durP2;ratioP2;P2;SDS_P1;SDS_P2;PMS_P1;PMS_P2;Temp;Humidity;BMP_temperature;BMP_pressure;BME280_temperature;BME280_humidity;BME280_pressure;Samples;Min_cycle;Max_cycle;Signal;HPM_P1;HPM_P2
2022/10/21 00:01:38;;;;;;;0.00;0.00;;;;;;;15.28;58.45;97823.69;8207015;28;20420;-79
2022/10/21 00:05:46;;;;;;;0.00;0.00;;;;;;;15.27;58.75;97796.75;8191446;29;20239;-79
2022/10/21 00:09:48;;;;;;;0.07;0.07;;;;;;;15.20;58.96;97798.94;8191261;29;20244;-78
2022/10/21 00:13:52;;;;;;;0.00;0.00;;;;;;;15.24;58.14;97802.16;8190985;29;20286;-79
2022/10/21 00:17:55;;;;;;;0.00;0.00;;;;;;;15.25;58.45;97812.50;8190995;29;20240;-78
2022/10/21 00:21:58;;;;;;;0.00;0.00;;;;;;;15.31;58.64;97819.09;8190420;29;20243;-79
2022/10/21 00:26:01;;;;;;;0.00;0.00;;;;;;;15.43;58.15;97825.28;8190741;29;20227;-79
2022/10/21 00:30:07;;;;;;;0.00;0.00;;;;;;;15.09;58.76;97798.78;8190615;29;20278;-79
2022/10/21 00:34:09;;;;;;;0.00;0.00;;;;;;;15.20;58.52;97791.09;8190340;29;20235;-79
2022/10/21 00:38:12;;;;;;;0.00;0.00;;;;;;;14.84;59.99;97791.72;8190482;29;20228;-81
2022/10/21 00:42:18;;;;;;;0.00;0.00;;;;;;;15.10;58.96;97810.91;8190236;29;20243;-79
2022/10/21 00:46:25;;;;;;;0.00;0.00;;;;;;;15.10;58.77;97799.63;8190116;29;20511;-79
2022/10/21 00:50:32;;;;;;;0.03;0.03;;;;;;;14.82;59.74;97755.31;8189953;29;20227;-79
2022/10/21 00:54:41;;;;;;;0.07;0.07;;;;;;;14.92;59.29;97757.34;8205089;28;20250;-79
2022/10/21 00:58:45;;;;;;;0.00;0.00;;;;;;;15.06;58.63;97788.59;8189449;29;20288;-79
2022/10/21 01:02:49;;;;;;;0.00;0.00;;;;;;;15.17;58.75;97778.28;8189590;29;20236;-79
2022/10/21 01:06:52;;;;;;;0.00;0.00;;;;;;;15.07;58.76;97756.34;8189409;29;20242;-79
2022/10/21 01:10:55;;;;;;;0.00;0.00;;;;;;;14.52;60.08;97755.50;8189742;29;20434;-79
2022/10/21 01:15:01;;;;;;;0.00;0.00;;;;;;;14.62;60.58;97742.75;8189683;29;20259;-79
2022/10/21 01:19:18;;;;;;;0.10;0.10;;;;;;;14.34;61.23;97730.63;8189424;29;20239;-79
2022/10/21 01:23:37;;;;;;;0.00;0.00;;;;;;;14.41;61.11;97726.69;8189540;29;20574;-79
2022/10/21 01:27:43;;;;;;;0.10;0.10;;;;;;;14.37;61.24;97725.22;8204136;28;20531;-79
2022/10/21 01:31:49;;;;;;;0.00;0.00;;;;;;;14.22;61.75;97709.63;8188029;29;20248;-79
2022/10/21 01:35:55;;;;;;;0.10;0.10;;;;;;;14.62;60.77;97708.88;8188726;29;20467;-79
2022/10/21 01:40:03;;;;;;;0.00;0.00;;;;;;;14.75;60.48;97724.53;8188504;29;20243;-79
2022/10/21 01:44:13;;;;;;;0.10;0.10;;;;;;;14.57;60.83;97730.03;8188589;29;20234;-79
2022/10/21 01:48:19;;;;;;;0.00;0.00;;;;;;;14.58;60.77;97718.69;8188866;29;20247;-78
2022/10/21 01:52:22;;;;;;;0.00;0.00;;;;;;;14.50;61.72;97712.25;8188547;29;20410;-79
2022/10/21 01:56:26;;;;;;;0.00;0.00;;;;;;;14.55;61.53;97705.81;8188186;29;20227;-78
2022/10/21 02:00:29;;;;;;;0.00;0.00;;;;;;;14.38;61.52;97711.25;8188107;29;20239;-78
2022/10/21 02:04:34;;;;;;;0.00;0.00;;;;;;;13.88;63.89;97711.75;8187927;29;20238;-78
2022/10/21 02:08:37;;;;;;;0.00;0.00;;;;;;;14.18;63.10;97705.53;8188044;29;20243;-78
2022/10/21 02:12:42;;;;;;;0.00;0.00;;;;;;;14.45;62.26;97720.38;8202868;28;20483;-78
2022/10/21 02:16:46;;;;;;;0.10;0.10;;;;;;;14.50;62.04;97722.66;8187485;29;20543;-80
2022/10/21 02:20:53;;;;;;;0.03;0.03;;;;;;;14.30;62.32;97709.16;8187561;29;20235;-80
2022/10/21 02:24:58;;;;;;;0.00;0.00;;;;;;;13.75;64.26;97710.81;8187517;29;20254;-80
2022/10/21 02:29:01;;;;;;;0.00;0.00;;;;;;;13.89;64.18;97695.16;8187200;29;20232;-80
2022/10/21 02:33:07;;;;;;;0.00;0.00;;;;;;;13.85;64.46;97711.91;8187106;29;20243;-80
2022/10/21 02:37:15;;;;;;;0.00;0.00;;;;;;;14.12;63.89;97707.69;8186843;29;20394;-80
2022/10/21 02:41:22;;;;;;;0.00;0.00;;;;;;;13.94;64.21;97712.31;8186811;29;20231;-79
2022/10/21 02:45:26;;;;;;;0.10;0.10;;;;;;;13.78;65.13;97696.78;8186841;29;20232;-80
2022/10/21 02:49:29;;;;;;;0.00;0.00;;;;;;;13.52;66.33;97695.75;8186683;29;20235;-80
2022/10/21 02:53:33;;;;;;;0.03;0.03;;;;;;;14.07;63.87;97693.19;8186674;29;20258;-80
2022/10/21 02:57:35;;;;;;;0.10;0.10;;;;;;;13.71;65.35;97693.72;8186542;29;20231;-80
2022/10/21 03:01:38;;;;;;;0.00;0.00;;;;;;;13.86;64.77;97684.16;8202094;28;20278;-79
2022/10/21 03:05:41;;;;;;;0.00;0.00;;;;;;;13.59;66.40;97677.06;8186645;29;20247;-80
2022/10/21 03:09:46;;;;;;;0.10;0.10;;;;;;;13.58;65.99;97666.78;8186387;29;20434;-80
2022/10/21 03:13:48;;;;;;;0.10;0.10;;;;;;;13.44;66.11;97659.81;8186351;29;20243;-80
2022/10/21 03:17:51;;;;;;;0.10;0.10;;;;;;;13.16;67.11;97648.44;8186205;29;20258;-80
2022/10/21 03:21:54;;;;;;;0.10;0.10;;;;;;;13.64;65.85;97641.22;8186234;29;20247;-79
2022/10/21 03:25:58;;;;;;;0.00;0.00;;;;;;;13.56;66.26;97627.03;8201081;29;20231;-80
2022/10/21 03:30:00;;;;;;;0.10;0.10;;;;;;;13.37;66.71;97633.34;8186252;29;20232;-80
2022/10/21 03:34:03;;;;;;;0.00;0.00;;;;;;;13.74;65.74;97630.25;8186128;29;20231;-80
2022/10/21 03:38:06;;;;;;;0.10;0.10;;;;;;;13.77;65.64;97630.06;8186220;29;20263;-80
2022/10/21 03:42:10;;;;;;;0.10;0.10;;;;;;;13.92;65.14;97644.72;8186145;29;20243;-80
2022/10/21 03:46:13;;;;;;;0.10;0.10;;;;;;;13.85;64.92;97636.44;8186156;29;20235;-80
2022/10/21 03:50:16;;;;;;;0.10;0.10;;;;;;;13.58;66.19;97633.78;8185878;29;20258;-79
2022/10/21 03:54:23;;;;;;;0.00;0.00;;;;;;;13.69;65.57;97626.16;8187637;29;20242;-79
2022/10/21 03:58:28;;;;;;;0.00;0.00;;;;;;;13.67;66.20;97632.41;8191572;29;20302;-79
2022/10/21 04:02:32;;;;;;;0.07;0.07;;;;;;;13.69;65.92;97622.72;8191507;29;20232;-79
2022/10/21 04:06:35;;;;;;;0.00;0.00;;;;;;;13.51;66.45;97629.88;8191586;29;20306;-79
2022/10/21 04:10:37;;;;;;;0.10;0.10;;;;;;;13.57;66.57;97621.69;8191396;29;20246;-78
2022/10/21 04:14:42;;;;;;;0.10;0.10;;;;;;;13.68;66.03;97616.66;8198890;28;20231;-79
2022/10/21 04:18:45;;;;;;;0.10;0.10;;;;;;;13.78;65.21;97606.50;8191082;29;20436;-80
2022/10/21 04:22:47;;;;;;;0.00;0.00;;;;;;;14.05;64.20;97603.09;8191023;29;20231;-79
2022/10/21 04:26:50;;;;;;;0.10;0.10;;;;;;;14.15;64.19;97598.16;8190690;29;20286;-79
2022/10/21 04:30:54;;;;;;;0.10;0.10;;;;;;;14.26;63.90;97586.09;8190406;29;20246;-80
2022/10/21 04:34:57;;;;;;;0.00;0.00;;;;;;;14.28;63.74;97568.59;8191026;29;20279;-79
2022/10/21 04:39:00;;;;;;;0.10;0.10;;;;;;;14.24;63.68;97556.72;8190461;29;20247;-79
2022/10/21 04:43:03;;;;;;;0.10;0.10;;;;;;;14.37;62.97;97558.50;8190489;29;20515;-80
2022/10/21 04:47:07;;;;;;;0.10;0.10;;;;;;;14.38;63.11;97545.38;8189920;29;20448;-80
2022/10/21 04:51:09;;;;;;;0.10;0.10;;;;;;;14.08;63.89;97537.81;8189811;29;20239;-81
2022/10/21 04:55:12;;;;;;;0.10;0.10;;;;;;;14.19;64.33;97545.75;8189827;29;20503;-81
2022/10/21 04:59:15;;;;;;;0.00;0.00;;;;;;;14.33;63.31;97544.84;8190070;29;20539;-80
2022/10/21 05:03:20;;;;;;;0.10;0.10;;;;;;;14.13;63.90;97534.91;8189484;29;20239;-80
2022/10/21 05:07:22;;;;;;;0.03;0.03;;;;;;;14.18;64.27;97536.25;8188313;29;20236;-79
2022/10/21 05:11:25;;;;;;;0.10;0.10;;;;;;;14.32;63.40;97535.38;8189686;29;20279;-80
2022/10/21 05:15:28;;;;;;;0.00;0.00;;;;;;;13.99;64.29;97523.63;8189741;29;20227;-83
2022/10/21 05:19:32;;;;;;;0.00;0.00;;;;;;;13.98;64.54;97523.72;8189645;29;20239;-84
2022/10/21 05:23:35;;;;;;;0.00;0.00;;;;;;;14.17;63.97;97525.97;8191773;29;20323;-84
2022/10/21 05:27:38;;;;;;;0.10;0.10;;;;;;;14.24;63.65;97530.66;8204044;28;20242;-78
2022/10/21 05:31:40;;;;;;;0.07;0.07;;;;;;;14.01;64.75;97521.78;8192619;29;20279;-81
2022/10/21 05:35:44;;;;;;;0.10;0.10;;;;;;;13.76;65.79;97521.69;8189055;29;20239;-81
2022/10/21 05:39:47;;;;;;;0.10;0.10;;;;;;;13.91;65.19;97518.06;8190368;29;20240;-79
2022/10/21 05:43:50;;;;;;;0.10;0.10;;;;;;;14.16;64.08;97525.13;8191047;29;20534;-81
2022/10/21 05:47:53;;;;;;;0.10;0.10;;;;;;;14.27;63.97;97527.84;8191357;29;20302;-81
2022/10/21 05:51:57;;;;;;;0.00;0.00;;;;;;;14.22;64.42;97531.69;8190616;29;20239;-80
2022/10/21 05:56:02;;;;;;;0.00;0.00;;;;;;;14.33;64.05;97529.22;8187977;29;20255;-81
2022/10/21 06:00:06;;;;;;;0.00;0.00;;;;;;;14.40;63.90;97538.28;8188106;29;20395;-80
2022/10/21 06:04:09;;;;;;;0.00;0.00;;;;;;;14.43;63.75;97538.09;8187910;29;20238;-80
2022/10/21 06:08:13;;;;;;;0.00;0.00;;;;;;;14.10;65.38;97553.34;8187873;29;20235;-80
2022/10/21 06:12:15;;;;;;;0.00;0.00;;;;;;;14.41;64.27;97541.72;8187728;29;20234;-79
2022/10/21 06:16:18;;;;;;;0.00;0.00;;;;;;;14.42;64.58;97541.63;8187813;29;20231;-80
2022/10/21 06:20:21;;;;;;;0.00;0.00;;;;;;;14.60;63.65;97557.84;8187904;29;20235;-80
2022/10/21 06:24:25;;;;;;;0.00;0.00;;;;;;;14.61;64.00;97559.50;8187602;29;20231;-79
2022/10/21 06:28:29;;;;;;;0.00;0.00;;;;;;;14.61;64.10;97556.06;8187423;29;20424;-80
2022/10/21 06:32:32;;;;;;;0.10;0.10;;;;;;;14.62;64.14;97561.19;8187888;29;20239;-80
2022/10/21 06:36:37;;;;;;;0.00;0.00;;;;;;;14.73;64.38;97564.81;8187558;29;20236;-80
2022/10/21 06:40:41;;;;;;;0.00;0.00;;;;;;;14.81;64.03;97566.00;8202953;28;20525;-79
2022/10/21 06:44:44;;;;;;;0.00;0.00;;;;;;;14.90;64.06;97574.94;8187958;29;20304;-79
2022/10/21 06:48:47;;;;;;;0.00;0.00;;;;;;;14.96;63.59;97582.34;8187217;29;20299;-80
2022/10/21 06:52:49;;;;;;;0.00;0.00;;;;;;;14.80;64.77;97579.13;8186947;29;20232;-79
2022/10/21 06:56:54;;;;;;;0.03;0.03;;;;;;;14.86;64.79;97582.13;8186739;29;20452;-79
2022/10/21 07:00:56;;;;;;;0.10;0.10;;;;;;;14.91;65.35;97574.00;8186855;29;20543;-80
2022/10/21 07:04:59;;;;;;;0.23;0.00;;;;;;;14.80;66.44;97573.91;8186764;29;20558;-80
2022/10/21 07:09:02;;;;;;;0.00;0.00;;;;;;;14.98;65.89;97559.63;8187588;29;20291;-80
2022/10/21 07:13:07;;;;;;;0.00;0.00;;;;;;;15.00;66.61;97559.50;8189065;29;20231;-81
2022/10/21 07:17:10;;;;;;;0.00;0.00;;;;;;;14.95;66.51;97569.44;8188202;29;20234;-79
2022/10/21 07:21:15;;;;;;;0.00;0.00;;;;;;;15.02;66.48;97575.88;8188025;29;20243;-81
2022/10/21 07:25:19;;;;;;;0.00;0.00;;;;;;;15.01;66.97;97572.44;8187809;29;20231;-80
2022/10/21 07:29:23;;;;;;;0.10;0.10;;;;;;;14.63;69.48;97583.69;8189299;29;20242;-79
2022/10/21 07:33:27;;;;;;;0.00;0.00;;;;;;;14.99;68.46;97599.56;8192508;29;20231;-80
2022/10/21 07:37:29;;;;;;;0.00;0.00;;;;;;;14.82;69.45;97603.31;8192296;29;20244;-80
2022/10/21 07:41:35;;;;;;;0.10;0.10;;;;;;;14.86;69.49;97592.56;8192693;29;20258;-79
2022/10/21 07:45:41;;;;;;;0.07;0.07;;;;;;;14.97;69.86;97583.19;8192638;29;20231;-79
2022/10/21 07:49:43;;;;;;;0.00;0.00;;;;;;;14.92;70.56;97588.69;8207042;28;20239;-79
2022/10/21 07:53:46;;;;;;;0.00;0.00;;;;;;;15.05;69.89;97583.50;8192119;29;20246;-79
2022/10/21 07:57:49;;;;;;;0.00;0.00;;;;;;;15.39;68.93;97573.34;8191865;29;20255;-80
2022/10/21 08:01:53;;;;;;;0.00;0.00;;;;;;;15.45;69.11;97588.53;8191895;29;20255;-81
2022/10/21 08:05:56;;;;;;;0.00;0.00;;;;;;;15.48;69.40;97588.34;8192126;29;20242;-80
2022/10/21 08:09:59;;;;;;;0.00;0.00;;;;;;;15.43;69.51;97587.81;8191946;29;20239;-80
2022/10/21 08:14:06;;;;;;;0.00;0.00;;;;;;;15.37;70.32;97593.47;8191807;29;20232;-80
2022/10/21 08:18:10;;;;;;;0.00;0.00;;;;;;;15.60;69.54;97592.69;8191965;29;20238;-80
2022/10/21 08:22:13;;;;;;;0.00;0.00;;;;;;;15.70;69.36;97608.53;8192023;29;20235;-81
2022/10/21 08:26:16;;;;;;;0.00;0.00;;;;;;;15.78;70.56;97603.66;8191972;29;20250;-80
2022/10/21 08:30:19;;;;;;;0.10;0.10;;;;;;;16.12;75.88;97605.59;8191708;29;20238;-80
2022/10/21 08:34:23;;;;;;;0.00;0.00;;;;;;;16.83;73.29;97595.16;8190707;29;20251;-83
2022/10/21 08:38:26;;;;;;;0.10;0.10;;;;;;;16.75;69.79;97599.19;8190981;29;20231;-81
2022/10/21 08:42:28;;;;;;;0.00;0.00;;;;;;;16.45;70.75;97604.91;8190765;29;20231;-84
2022/10/21 08:46:34;;;;;;;0.00;0.00;;;;;;;16.65;69.51;97597.34;8190757;29;20231;-85
2022/10/21 08:50:40;;;;;;;0.10;0.10;;;;;;;16.37;68.71;97588.94;8190721;29;20302;-81
2022/10/21 08:54:46;;;;;;;0.00;0.00;;;;;;;16.03;70.69;97591.44;8198470;28;20243;-80
2022/10/21 08:58:51;;;;;;;0.00;0.00;;;;;;;15.88;70.34;97569.88;8190148;29;20247;-81
2022/10/21 09:03:00;;;;;;;0.00;0.00;;;;;;;15.86;71.13;97563.06;8190005;29;20243;-79
2022/10/21 09:07:07;;;;;;;0.00;0.00;;;;;;;15.63;72.13;97548.09;8189905;29;20322;-77
2022/10/21 09:11:19;;;;;;;0.07;0.07;;;;;;;15.23;74.08;97544.84;8189252;29;20236;-80
2022/10/21 09:15:24;;;;;;;0.00;0.00;;;;;;;15.68;72.15;97537.31;8189701;29;20232;-79
2022/10/21 09:19:36;;;;;;;0.00;0.00;;;;;;;15.70;72.14;97540.66;8189042;29;20235;-78
2022/10/21 09:23:52;;;;;;;0.03;0.03;;;;;;;15.90;71.87;97554.94;8196895;28;20242;-82
2022/10/21 09:27:55;;;;;;;0.10;0.10;;;;;;;15.71;72.70;97557.16;8189561;29;20411;-80
2022/10/21 09:32:09;;;;;;;0.00;0.00;;;;;;;15.86;72.25;97566.53;8188890;29;20266;-81
2022/10/21 09:36:15;;;;;;;0.10;0.10;;;;;;;15.82;72.44;97576.38;8189000;29;20680;-80
2022/10/21 09:40:20;;;;;;;0.10;0.10;;;;;;;15.73;73.08;97592.69;8188169;29;20451;-79
2022/10/21 09:44:24;;;;;;;0.03;0.03;;;;;;;15.75;72.75;97589.97;8188504;29;20393;-78
2022/10/21 09:48:31;;;;;;;0.00;0.00;;;;;;;15.78;73.53;97574.94;8188386;29;20236;-77
2022/10/21 09:52:49;;;;;;;0.00;0.00;;;;;;;15.79;73.91;97560.91;8201726;28;20246;-78
2022/10/21 09:56:57;;;;;;;0.10;0.10;;;;;;;15.94;73.67;97568.59;8187906;29;20235;-77
2022/10/21 10:01:00;;;;;;;0.00;0.00;;;;;;;15.98;74.03;97591.75;8188080;29;20414;-78
2022/10/21 10:05:36;;;;;;;0.00;0.00;;;;;;;16.05;73.39;97606.97;8187662;29;20238;-78
2022/10/21 10:09:46;;;;;;;0.00;0.00;;;;;;;15.97;74.45;97577.03;8203314;28;20271;-78
2022/10/21 10:13:51;;;;;;;0.10;0.10;;;;;;;15.82;76.08;97575.50;8187714;29;20501;-78
2022/10/21 10:17:56;;;;;;;0.00;0.00;;;;;;;15.90;75.60;97559.31;8187446;29;20537;-79
2022/10/21 10:22:12;;;;;;;0.00;0.00;;;;;;;15.74;76.05;97543.91;8187254;29;20246;-78
2022/10/21 10:26:21;;;;;;;0.00;0.00;;;;;;;15.59;76.79;97531.00;8187316;29;20242;-78
2022/10/21 10:30:30;;;;;;;0.00;0.00;;;;;;;15.67;77.71;97519.16;8187239;29;20235;-78
2022/10/21 10:34:34;;;;;;;0.00;0.00;;;;;;;15.29;78.43;97515.75;8124699;29;20471;-78
2022/10/21 10:38:39;;;;;;;0.00;0.00;;;;;;;15.68;78.32;97513.84;8124500;29;20252;-78
2022/10/21 10:42:44;;;;;;;0.00;0.00;;;;;;;15.85;77.32;97519.66;8155281;29;20236;-79
2022/10/21 10:46:54;;;;;;;0.00;0.00;;;;;;;16.03;76.06;97495.63;8155452;29;20232;-82
2022/10/21 10:50:57;;;;;;;0.00;0.00;;;;;;;15.82;77.07;97521.53;8155741;29;20291;-80
2022/10/21 10:55:18;;;;;;;0.00;0.00;;;;;;;16.17;75.09;97598.25;8155532;29;20236;-81
2022/10/21 10:59:34;;;;;;;0.00;0.00;;;;;;;16.16;75.44;97623.56;8155599;29;20236;-79
2022/10/21 11:03:44;;;;;;;0.00;0.00;;;;;;;16.20;75.43;97618.91;8155809;29;20307;-80
2022/10/21 11:07:48;;;;;;;0.00;0.00;;;;;;;16.27;74.82;97645.44;8161308;29;20236;-77
2022/10/21 11:11:54;;;;;;;0.00;0.00;;;;;;;16.30;74.57;97621.72;8161123;29;20235;-80
2022/10/21 11:16:11;;;;;;;0.00;0.00;;;;;;;16.38;74.62;97612.34;8161474;29;20239;-81
2022/10/21 11:20:20;;;;;;;0.10;0.10;;;;;;;16.50;73.64;97607.16;8161113;29;20238;-82
2022/10/21 11:24:44;;;;;;;0.00;0.00;;;;;;;16.53;73.42;97617.41;8161048;29;20248;-81
2022/10/21 11:28:51;;;;;;;0.00;0.00;;;;;;;16.44;73.78;97608.47;8160657;29;20236;-83
2022/10/21 11:33:02;;;;;;;0.00;0.00;;;;;;;16.45;75.59;97614.50;8181827;29;20283;-81
2022/10/21 11:37:13;;;;;;;0.10;0.10;;;;;;;16.63;74.53;97600.09;8192588;29;20227;-81
2022/10/21 11:41:25;;;;;;;0.10;0.10;;;;;;;16.76;73.91;97605.22;8192200;29;20294;-78
2022/10/21 11:45:55;;;;;;;0.00;0.00;;;;;;;16.79;73.19;97597.13;8192665;29;20231;-83
2022/10/21 11:50:03;;;;;;;0.00;0.00;;;;;;;16.85;73.37;97594.13;8194003;29;20246;-85
2022/10/21 11:54:29;;;;;;;0.00;0.00;;;;;;;16.88;73.61;97604.31;8192053;29;20407;-83
2022/10/21 11:58:41;;;;;;;0.00;0.00;;;;;;;16.82;73.91;97607.41;8192111;29;20242;-83
2022/10/21 12:02:45;;;;;;;0.10;0.10;;;;;;;16.92;73.53;97605.75;8206725;28;20470;-81
2022/10/21 12:06:55;;;;;;;0.10;0.10;;;;;;;16.84;73.95;97613.34;8190936;29;20298;-80
2022/10/21 12:11:01;;;;;;;0.00;0.00;;;;;;;16.87;73.79;97618.38;8191671;29;20539;-82
2022/10/21 12:15:12;;;;;;;0.00;0.00;;;;;;;16.91;73.18;97621.59;8190958;29;20349;-78
2022/10/21 12:19:15;;;;;;;0.00;0.00;;;;;;;16.94;73.53;97613.50;8191158;29;20239;-77
2022/10/21 12:23:21;;;;;;;0.00;0.00;;;;;;;16.95;74.45;97610.75;8190860;29;20264;-79
2022/10/21 12:27:29;;;;;;;0.00;0.00;;;;;;;16.94;75.08;97595.19;8190892;29;20231;-80
2022/10/21 12:31:38;;;;;;;0.00;0.00;;;;;;;16.83;76.40;97597.78;8190463;29;20334;-79
2022/10/21 12:35:46;;;;;;;0.00;0.00;;;;;;;17.15;75.73;97596.16;8205747;28;20254;-79
2022/10/21 12:39:50;;;;;;;0.00;0.00;;;;;;;17.62;74.77;97592.56;8190700;29;20351;-80
2022/10/21 12:43:59;;;;;;;0.00;0.00;;;;;;;17.61;75.12;97589.13;8190616;29;20251;-82
2022/10/21 12:48:06;;;;;;;0.00;0.00;;;;;;;17.77;74.14;97581.72;8190697;29;20247;-82
2022/10/21 12:52:11;;;;;;;0.00;0.00;;;;;;;17.95;74.61;97583.84;8190507;29;20283;-79
2022/10/21 12:56:27;;;;;;;0.00;0.00;;;;;;;17.85;74.71;97578.50;8190121;29;20231;-82
2022/10/21 13:00:52;;;;;;;0.00;0.00;;;;;;;18.07;74.73;97577.63;8188951;29;20231;-84
2022/10/21 13:04:57;;;;;;;0.00;0.00;;;;;;;18.03;75.30;97573.59;8198176;28;20543;-81
2022/10/21 13:09:00;;;;;;;0.00;0.00;;;;;;;18.09;74.50;97562.59;8189586;29;20431;-79
2022/10/21 13:13:34;;;;;;;0.00;0.00;;;;;;;18.24;73.73;97572.78;8189506;29;20235;-80
2022/10/21 13:17:52;;;;;;;0.00;0.00;;;;;;;18.19;74.60;97574.97;8148215;28;20235;-81
2022/10/21 13:22:02;;;;;;;0.00;0.00;;;;;;;18.25;74.29;97575.28;8188740;29;20426;-80
2022/10/21 13:26:10;;;;;;;0.00;0.00;;;;;;;18.27;74.66;97565.50;8188328;29;20474;-80
2022/10/21 13:30:26;;;;;;;0.00;0.00;;;;;;;18.25;74.59;97559.53;8189154;29;20229;-79
2022/10/21 13:34:30;;;;;;;0.00;0.00;;;;;;;18.23;75.12;97556.22;8189046;29;20237;-80
2022/10/21 13:38:34;;;;;;;0.00;0.00;;;;;;;18.24;75.17;97557.91;8188585;29;20283;-78
2022/10/21 13:42:41;;;;;;;0.00;0.00;;;;;;;18.27;74.92;97555.00;8188424;29;20552;-79
2022/10/21 13:46:44;;;;;;;0.00;0.00;;;;;;;18.51;75.82;97559.19;8203385;28;20236;-79
2022/10/21 13:50:49;;;;;;;0.00;0.00;;;;;;;18.32;75.75;97552.84;8188027;29;20243;-79
2022/10/21 13:54:57;;;;;;;0.00;0.00;;;;;;;18.42;75.39;97552.91;8187958;29;20247;-83
2022/10/21 13:59:00;;;;;;;0.00;0.00;;;;;;;18.44;75.69;97548.38;8189842;29;20235;-85
2022/10/21 14:03:05;;;;;;;0.00;0.00;;;;;;;18.36;75.36;97556.06;8189355;29;20529;-82
2022/10/21 14:07:14;;;;;;;0.00;0.00;;;;;;;18.45;75.11;97550.06;8188647;29;20243;-82
2022/10/21 14:11:20;;;;;;;0.00;0.00;;;;;;;18.43;75.22;97551.13;8189291;29;20251;-79
2022/10/21 14:15:25;;;;;;;0.00;0.00;;;;;;;18.50;74.90;97554.91;8188849;29;20235;-79
2022/10/21 14:19:30;;;;;;;0.00;0.00;;;;;;;18.35;75.27;97551.75;8189467;29;20296;-81
2022/10/21 14:23:35;;;;;;;0.00;0.00;;;;;;;18.44;75.41;97548.38;8189681;29;20250;-80
2022/10/21 14:27:38;;;;;;;0.00;0.00;;;;;;;18.47;75.11;97548.13;8195688;28;20243;-77
2022/10/21 14:31:40;;;;;;;0.00;0.00;;;;;;;18.52;75.08;97547.72;8187338;29;20269;-80
2022/10/21 14:36:03;;;;;;;0.00;0.00;;;;;;;18.53;74.57;97558.09;8187187;29;20232;-80
2022/10/21 14:40:12;;;;;;;0.00;0.00;;;;;;;18.42;75.73;97570.44;8186969;29;20410;-80
2022/10/21 14:44:18;;;;;;;0.00;0.00;;;;;;;18.34;76.85;97574.53;8187897;29;20233;-80
2022/10/21 14:48:26;;;;;;;0.00;0.00;;;;;;;18.42;76.18;97558.16;8187719;29;20304;-79
2022/10/21 14:52:32;;;;;;;0.00;0.00;;;;;;;18.46;75.55;97575.28;8186926;29;20235;-80
2022/10/21 14:56:41;;;;;;;0.00;0.00;;;;;;;18.43;75.97;97579.94;8186842;29;20639;-80
2022/10/21 15:00:44;;;;;;;0.00;0.00;;;;;;;18.38;76.50;97571.66;8194399;29;20276;-80
2022/10/21 15:04:52;;;;;;;0.00;0.00;;;;;;;18.42;75.80;97570.44;8186770;29;20457;-78
2022/10/21 15:09:18;;;;;;;0.00;0.00;;;;;;;18.51;75.33;97570.50;8186292;29;20249;-82
2022/10/21 15:13:22;;;;;;;0.00;0.00;;;;;;;18.38;75.34;97562.00;8187310;29;20244;-80
2022/10/21 15:17:25;;;;;;;0.00;0.00;;;;;;;18.36;75.42;97577.03;8187289;29;20231;-80
2022/10/21 15:21:35;;;;;;;0.00;0.00;;;;;;;18.38;74.68;97569.84;8187618;29;20231;-78
2022/10/21 15:25:38;;;;;;;0.00;0.00;;;;;;;18.31;75.22;97566.06;8201976;28;20234;-77
2022/10/21 15:29:45;;;;;;;0.00;0.00;;;;;;;18.30;74.59;97560.00;8186362;29;20244;-79
2022/10/21 15:33:48;;;;;;;0.00;0.00;;;;;;;18.24;75.08;97570.16;8185832;29;20285;-79
2022/10/21 15:37:51;;;;;;;0.00;0.00;;;;;;;18.14;74.98;97564.84;8185863;29;20245;-79
2022/10/21 15:41:56;;;;;;;0.00;0.00;;;;;;;18.10;75.33;97566.03;8186009;29;20249;-80
2022/10/21 15:46:00;;;;;;;0.00;0.00;;;;;;;18.04;74.84;97553.44;8186022;29;20248;-79
2022/10/21 15:50:06;;;;;;;0.00;0.00;;;;;;;18.01;75.10;97546.69;8186827;29;20253;-79
2022/10/21 15:54:09;;;;;;;0.00;0.00;;;;;;;17.90;75.04;97558.03;8192222;29;20232;-81
2022/10/21 15:58:15;;;;;;;0.00;0.00;;;;;;;17.90;75.29;97557.19;8191964;29;20240;-78
2022/10/21 16:02:19;;;;;;;0.00;0.00;;;;;;;17.86;75.03;97559.22;8191722;29;20240;-78
2022/10/21 16:06:22;;;;;;;0.00;0.00;;;;;;;17.83;75.37;97563.84;8191072;29;20232;-77
2022/10/21 16:10:28;;;;;;;0.00;0.00;;;;;;;17.78;75.45;97561.56;8193133;29;20236;-81
2022/10/21 16:14:31;;;;;;;0.10;0.10;;;;;;;17.76;75.80;97566.09;8191190;29;20237;-83
2022/10/21 16:18:35;;;;;;;0.00;0.00;;;;;;;17.74;75.72;97554.94;8190779;29;20239;-80
2022/10/21 16:22:37;;;;;;;0.00;0.00;;;;;;;17.72;75.87;97556.84;8190209;29;20260;-78
2022/10/21 16:26:42;;;;;;;0.00;0.00;;;;;;;17.69;75.44;97546.63;8204800;28;20340;-80
2022/10/21 16:30:45;;;;;;;0.00;0.00;;;;;;;17.62;75.86;97554.13;8190225;29;20240;-78
2022/10/21 16:34:49;;;;;;;0.00;0.00;;;;;;;17.54;75.36;97557.34;8190324;29;20396;-80
2022/10/21 16:38:53;;;;;;;0.00;0.00;;;;;;;17.53;75.52;97574.00;8190131;29;20236;-82
2022/10/21 16:42:56;;;;;;;0.00;0.00;;;;;;;17.51;75.94;97575.91;8190092;29;20240;-80
2022/10/21 16:46:58;;;;;;;0.00;0.00;;;;;;;17.47;75.01;97569.25;8189799;29;20478;-80
2022/10/21 16:51:02;;;;;;;0.00;0.00;;;;;;;17.47;75.46;97573.66;8189850;29;20232;-81
2022/10/21 16:55:06;;;;;;;0.00;0.00;;;;;;;17.46;75.48;97578.06;8189862;29;20232;-80
2022/10/21 16:59:09;;;;;;;0.00;0.00;;;;;;;17.37;75.22;97584.84;8189675;29;20229;-81
2022/10/21 17:03:11;;;;;;;0.00;0.00;;;;;;;17.41;75.87;97569.75;8189577;29;20245;-82
2022/10/21 17:07:16;;;;;;;0.00;0.00;;;;;;;17.41;75.19;97580.22;8189307;29;20461;-80
2022/10/21 17:11:21;;;;;;;0.00;0.00;;;;;;;17.35;74.73;97584.16;8189321;29;20235;-79
2022/10/21 17:15:31;;;;;;;0.00;0.00;;;;;;;17.32;75.79;97581.75;8189226;29;20234;-79
2022/10/21 17:19:34;;;;;;;0.00;0.00;;;;;;;17.35;75.41;97570.22;8189057;29;20286;-81
2022/10/21 17:23:40;;;;;;;0.00;0.00;;;;;;;17.29;75.86;97584.63;8188759;29;20247;-83
2022/10/21 17:27:43;;;;;;;0.00;0.00;;;;;;;17.33;75.90;97572.13;8204283;28;20247;-82
2022/10/21 17:31:45;;;;;;;0.00;0.00;;;;;;;17.28;75.50;97577.72;8188278;29;20236;-82
2022/10/21 17:35:48;;;;;;;0.00;0.00;;;;;;;17.30;75.39;97578.44;8188477;29;20240;-83
2022/10/21 17:39:52;;;;;;;0.00;0.00;;;;;;;17.24;74.93;97588.56;8188385;29;20243;-84
2022/10/21 17:43:55;;;;;;;0.00;0.00;;;;;;;17.16;75.39;97579.50;8188425;29;20248;-81
2022/10/21 17:47:58;;;;;;;0.07;0.07;;;;;;;17.15;74.39;97588.31;8188090;29;20266;-82
2022/10/21 17:52:00;;;;;;;0.00;0.00;;;;;;;17.11;74.79;97594.72;8188298;29;20235;-85
2022/10/21 17:56:06;;;;;;;0.00;0.00;;;;;;;17.01;74.92;97585.91;8187966;29;20240;-84
2022/10/21 18:00:10;;;;;;;0.00;0.00;;;;;;;17.05;74.64;97586.53;8187637;29;20303;-84
2022/10/21 18:04:13;;;;;;;0.07;0.07;;;;;;;16.99;74.10;97593.88;8187397;29;20243;-81
2022/10/21 18:08:15;;;;;;;0.00;0.00;;;;;;;16.96;74.21;97594.13;8187339;29;20238;-82
2022/10/21 18:12:19;;;;;;;0.00;0.00;;;;;;;16.93;74.22;97591.75;8186554;29;20231;-84
2022/10/21 18:16:23;;;;;;;0.00;0.00;;;;;;;17.88;79.14;97578.25;8187894;29;20542;-84
2022/10/21 18:20:26;;;;;;;0.00;0.00;;;;;;;18.12;75.38;97574.59;8187328;29;20244;-83
2022/10/21 18:24:29;;;;;;;0.00;0.00;;;;;;;17.63;72.48;97587.22;8187386;29;20526;-87
2022/10/21 18:28:34;;;;;;;0.00;0.00;;;;;;;17.49;72.59;97583.06;8187489;29;20232;-87
2022/10/21 18:32:37;;;;;;;0.00;0.00;;;;;;;17.31;72.90;97576.66;8187388;29;20561;-88
2022/10/21 18:36:41;;;;;;;0.00;0.00;;;;;;;17.24;72.77;97584.16;8202131;28;20291;-87
2022/10/21 18:40:45;;;;;;;0.00;0.00;;;;;;;17.23;72.90;97584.25;8187059;29;20245;-86
2022/10/21 18:45:06;;;;;;;0.00;0.00;;;;;;;17.14;73.04;97572.75;8187010;29;20243;-84
2022/10/21 18:49:11;;;;;;;0.00;0.00;;;;;;;17.12;72.55;97572.84;8186829;29;20284;-80
2022/10/21 18:53:13;;;;;;;0.00;0.00;;;;;;;17.07;72.65;97580.22;8193567;29;20232;-83
2022/10/21 18:57:16;;;;;;;0.00;0.00;;;;;;;16.95;72.42;97570.69;8194045;29;20419;-83
2022/10/21 19:01:22;;;;;;;0.00;0.00;;;;;;;16.98;73.08;97560.00;8190174;29;20235;-83
2022/10/21 19:05:25;;;;;;;0.00;0.00;;;;;;;16.91;72.85;97567.47;8186677;29;20406;-84
2022/10/21 19:09:28;;;;;;;0.00;0.00;;;;;;;16.92;73.24;97579.59;8186238;29;20243;-81
2022/10/21 19:13:31;;;;;;;0.00;0.00;;;;;;;16.92;73.04;97592.69;8186478;29;20240;-85
2022/10/21 19:17:35;;;;;;;0.00;0.00;;;;;;;16.92;72.47;97590.06;8186598;29;20242;-82